createdAt,value
2023-01-28T00:01:14.462Z,1.30
2023-01-28T00:03:17.517Z,2.17
2023-01-28T00:05:20.500Z,1.63
2023-01-28T00:07:23.475Z,1.77
2023-01-28T00:09:26.687Z,2.20
2023-01-28T00:11:29.680Z,2.47
2023-01-28T00:13:35.196Z,2.60
2023-01-28T00:15:38.236Z,2.63
2023-01-28T00:17:41.268Z,2.50
2023-01-28T00:19:44.932Z,2.95
2023-01-28T00:21:47.983Z,2.53
2023-01-28T00:23:54.228Z,2.78
2023-01-28T00:25:59.824Z,3.45
2023-01-28T00:28:02.840Z,4.00
2023-01-28T00:30:08.595Z,4.32
2023-01-28T00:32:12.642Z,3.83
2023-01-28T00:34:15.791Z,3.20
2023-01-28T00:36:20.146Z,2.90
2023-01-28T00:38:24.470Z,2.85
2023-01-28T00:40:27.488Z,2.30
2023-01-28T00:42:30.614Z,2.50
2023-01-28T00:44:33.646Z,2.50
2023-01-28T00:46:41.902Z,2.80
2023-01-28T00:48:45.488Z,2.92
2023-01-28T00:50:48.981Z,2.60
2023-01-28T00:52:51.991Z,3.25
2023-01-28T00:54:55.012Z,2.45
2023-01-28T00:56:58.049Z,2.22
2023-01-28T00:59:01.135Z,2.10
2023-01-28T01:01:09.392Z,2.30
2023-01-28T01:03:14.078Z,2.30
2023-01-28T01:05:17.475Z,2.20
2023-01-28T01:07:20.592Z,2.20
2023-01-28T01:09:24.525Z,2.42
2023-01-28T01:11:27.579Z,2.30
2023-01-28T01:13:31.206Z,2.67
2023-01-28T01:15:34.718Z,2.47
2023-01-28T01:17:40.317Z,3.20
2023-01-28T01:19:44.757Z,2.97
2023-01-28T01:21:50.627Z,2.80
2023-01-28T01:23:54.555Z,2.60
2023-01-28T01:25:58.989Z,3.00
2023-01-28T01:28:01.941Z,2.53
2023-01-28T01:30:05.731Z,2.60
2023-01-28T01:32:09.935Z,2.50
2023-01-28T01:34:13.077Z,2.47
2023-01-28T01:36:20.230Z,2.67
2023-01-28T01:38:23.282Z,2.70
2023-01-28T01:40:26.343Z,2.35
2023-01-28T01:42:29.589Z,2.53
2023-01-28T01:44:56.287Z,2.42
2023-01-28T01:46:59.561Z,2.20
2023-01-28T01:49:13.400Z,2.67
2023-01-28T01:51:21.120Z,2.97
2023-01-28T01:53:27.690Z,2.55
2023-01-28T01:55:37.649Z,2.40
2023-01-28T01:57:41.836Z,2.53
2023-01-28T01:59:45.882Z,2.75
2023-01-28T02:01:49.648Z,2.58
2023-01-28T02:04:01.161Z,2.45
2023-01-28T02:08:25.489Z,2.38
2023-01-28T02:10:28.649Z,2.60
2023-01-28T02:12:36.110Z,3.10
2023-01-28T02:14:43.895Z,2.70
2023-01-28T02:16:47.085Z,2.50
2023-01-28T02:18:50.108Z,2.80
2023-01-28T02:21:13.818Z,2.83
2023-01-28T02:23:34.304Z,2.47
2023-01-28T02:26:04.018Z,2.45
2023-01-28T02:28:16.985Z,2.72
2023-01-28T02:30:23.934Z,3.20
2023-01-28T02:32:33.424Z,3.53
2023-01-28T02:34:42.562Z,3.67
2023-01-28T02:36:49.939Z,3.30
2023-01-28T02:38:54.596Z,3.75
2023-01-28T02:41:06.930Z,3.63
2023-01-28T02:43:09.952Z,3.50
2023-01-28T02:45:46.481Z,3.10
2023-01-28T02:47:58.447Z,3.20
2023-01-28T02:52:58.856Z,2.80
2023-01-28T02:55:10.462Z,2.97
2023-01-28T02:57:25.712Z,2.97
2023-01-28T02:59:33.888Z,3.80
2023-01-28T03:01:44.630Z,2.75
2023-01-28T03:03:59.071Z,3.00
2023-01-28T03:06:07.846Z,3.67
2023-01-28T03:08:26.574Z,3.08
2023-01-28T03:10:30.308Z,3.03
2023-01-28T03:12:53.791Z,3.00
2023-01-28T03:15:17.980Z,3.30
2023-01-28T03:17:45.434Z,3.00
2023-01-28T03:20:07.080Z,2.72
2023-01-28T03:24:51.802Z,2.90
2023-01-28T03:27:16.794Z,3.50
2023-01-28T03:29:42.620Z,3.20
2023-01-28T03:32:06.259Z,3.00
2023-01-28T03:34:29.733Z,2.95
2023-01-28T03:36:49.468Z,3.53
2023-01-28T03:39:29.358Z,3.03
2023-01-28T03:41:32.560Z,3.50
2023-01-28T03:43:35.706Z,2.95
2023-01-28T03:45:39.193Z,2.83
2023-01-28T03:47:44.156Z,3.63
2023-01-28T03:49:52.804Z,3.03
2023-01-28T03:51:57.950Z,3.22
2023-01-28T03:54:01.010Z,2.70
2023-01-28T03:56:04.107Z,3.20
2023-01-28T03:58:07.518Z,2.72
2023-01-28T04:00:13.173Z,2.85
2023-01-28T04:02:19.599Z,2.95
2023-01-28T04:04:24.596Z,2.88
2023-01-28T04:06:32.363Z,3.20
2023-01-28T04:08:48.990Z,2.90
2023-01-28T04:11:15.696Z,3.20
2023-01-28T04:13:21.039Z,2.70
2023-01-28T04:15:24.063Z,3.05
2023-01-28T04:17:27.077Z,3.58
2023-01-28T04:19:31.710Z,3.10
2023-01-28T04:21:37.090Z,3.00
2023-01-28T04:23:41.008Z,3.05
2023-01-28T04:25:45.071Z,2.92
2023-01-28T04:27:48.249Z,3.22
2023-01-28T04:29:55.265Z,3.45
2023-01-28T04:32:27.667Z,3.22
2023-01-28T04:34:44.703Z,3.33
2023-01-28T04:39:27.665Z,3.50
2023-01-28T04:41:56.855Z,3.38
2023-01-28T04:44:13.678Z,3.33
2023-01-28T04:46:46.075Z,3.63
2023-01-28T04:48:52.809Z,3.50
2023-01-28T04:51:16.267Z,3.42
2023-01-28T04:53:34.349Z,3.15
2023-01-28T04:55:43.406Z,3.58
2023-01-28T04:57:48.614Z,3.95
2023-01-28T04:59:51.697Z,4.05
2023-01-28T05:01:54.907Z,3.60
2023-01-28T05:03:58.238Z,3.35
2023-01-28T05:06:04.490Z,3.33
2023-01-28T05:08:16.287Z,3.40
2023-01-28T05:10:24.131Z,3.47
2023-01-28T05:12:27.706Z,3.47
2023-01-28T05:14:32.450Z,3.30
2023-01-28T05:16:42.099Z,3.83
2023-01-28T05:18:47.924Z,3.70
2023-01-28T05:20:52.879Z,3.72
2023-01-28T05:22:55.978Z,3.67
2023-01-28T05:25:03.850Z,3.55
2023-01-28T05:27:08.535Z,3.45
2023-01-28T05:29:12.412Z,3.88
2023-01-28T05:31:15.977Z,3.85
2023-01-28T05:33:19.219Z,3.85
2023-01-28T05:35:22.252Z,3.90
2023-01-28T05:37:25.306Z,3.50
2023-01-28T05:39:32.443Z,4.60
2023-01-28T05:41:35.890Z,4.35
2023-01-28T05:43:41.232Z,4.32
2023-01-28T05:46:22.757Z,4.35
2023-01-28T05:48:52.599Z,4.55
2023-01-28T05:51:27.907Z,3.75
2023-01-28T05:53:33.728Z,4.43
2023-01-28T05:55:37.313Z,4.68
2023-01-28T05:57:40.367Z,4.88
2023-01-28T05:59:46.209Z,4.75
2023-01-28T06:01:49.611Z,4.57
2023-01-28T06:03:52.871Z,4.72
2023-01-28T06:05:56.000Z,4.93
2023-01-28T06:07:59.056Z,4.60
2023-01-28T06:10:02.257Z,5.10
2023-01-28T06:12:06.387Z,5.40
2023-01-28T06:14:19.132Z,5.00
2023-01-28T06:16:44.099Z,5.10
2023-01-28T06:18:58.359Z,5.30
2023-01-28T06:21:01.775Z,5.50
2023-01-28T06:23:04.796Z,5.40
2023-01-28T06:25:09.008Z,5.95
2023-01-28T06:27:12.061Z,5.43
2023-01-28T06:29:15.152Z,5.95
2023-01-28T06:31:19.135Z,5.95
2023-01-28T06:33:24.329Z,5.30
2023-01-28T06:35:27.821Z,5.95
2023-01-28T06:37:30.885Z,6.07
2023-01-28T06:39:33.971Z,6.55
2023-01-28T06:41:36.960Z,6.78
2023-01-28T06:43:39.982Z,6.22
2023-01-28T06:45:43.212Z,6.45
2023-01-28T06:47:46.277Z,6.97
2023-01-28T06:49:50.747Z,6.53
2023-01-28T06:51:53.870Z,6.68
2023-01-28T06:53:56.909Z,6.85
2023-01-28T06:55:59.985Z,7.50
2023-01-28T06:58:03.060Z,7.15
2023-01-28T07:00:08.442Z,7.40
2023-01-28T07:02:12.419Z,7.97
2023-01-28T07:04:15.614Z,7.40
2023-01-28T07:06:20.039Z,8.02
2023-01-28T07:08:23.102Z,8.23
2023-01-28T07:10:26.161Z,8.35
2023-01-28T07:12:29.271Z,8.75
2023-01-28T07:14:32.312Z,9.18
2023-01-28T07:16:35.398Z,9.02
2023-01-28T07:18:38.434Z,9.55
2023-01-28T07:20:41.510Z,9.93
2023-01-28T07:22:49.912Z,9.52
2023-01-28T07:24:52.976Z,10.00
2023-01-28T07:26:56.082Z,9.35
2023-01-28T07:29:00.284Z,10.18
2023-01-28T07:31:03.597Z,10.15
2023-01-28T07:33:06.787Z,9.38
2023-01-28T07:35:10.388Z,9.63
2023-01-28T07:37:13.626Z,9.52
2023-01-28T07:39:18.091Z,9.95
2023-01-28T07:41:21.194Z,9.27
2023-01-28T07:43:24.268Z,9.85
2023-01-28T07:45:28.741Z,9.60
2023-01-28T07:47:31.963Z,9.90
2023-01-28T07:49:35.425Z,9.93
2023-01-28T07:51:38.434Z,9.65
2023-01-28T07:53:41.918Z,10.23
2023-01-28T07:55:46.359Z,10.15
2023-01-28T07:57:51.051Z,10.85
2023-01-28T07:59:54.159Z,11.85
2023-01-28T08:01:57.198Z,11.32
2023-01-28T08:04:00.267Z,11.20
2023-01-28T08:06:03.373Z,14.13
2023-01-28T08:08:07.041Z,16.52
2023-01-28T08:10:11.484Z,13.18
2023-01-28T08:12:16.201Z,17.45
2023-01-28T08:14:19.333Z,16.23
2023-01-28T08:16:22.376Z,16.15
2023-01-28T08:18:25.420Z,13.48
2023-01-28T08:20:30.045Z,12.95
2023-01-28T08:22:33.105Z,13.73
2023-01-28T08:24:36.139Z,12.55
2023-01-28T08:26:39.199Z,12.50
2023-01-28T08:28:43.736Z,12.10
2023-01-28T08:30:47.786Z,11.70
2023-01-28T08:32:50.909Z,11.43
2023-01-28T08:34:53.912Z,11.35
2023-01-28T08:36:57.112Z,11.60
2023-01-28T08:39:02.689Z,11.00
2023-01-28T08:41:06.062Z,12.05
2023-01-28T08:43:09.369Z,10.85
2023-01-28T08:45:14.067Z,11.63
2023-01-28T08:47:17.088Z,12.35
2023-01-28T08:49:20.127Z,10.73
2023-01-28T08:51:23.356Z,10.80
2023-01-28T08:53:26.499Z,10.23
2023-01-28T08:55:30.046Z,10.70
2023-01-28T08:57:33.126Z,10.00
2023-01-28T08:59:36.202Z,9.48
2023-01-28T09:01:40.767Z,9.05
2023-01-28T09:03:43.895Z,8.70
2023-01-28T09:05:46.997Z,9.45
2023-01-28T09:07:50.873Z,9.10
2023-01-28T09:09:53.880Z,9.25
2023-01-28T09:11:56.944Z,8.88
2023-01-28T09:14:00.164Z,8.70
2023-01-28T09:16:06.331Z,8.05
2023-01-28T09:18:10.859Z,8.73
2023-01-28T09:20:14.386Z,8.88
2023-01-28T09:22:17.876Z,8.10
2023-01-28T09:24:21.331Z,7.97
2023-01-28T09:26:24.471Z,8.23
2023-01-28T09:28:27.463Z,7.97
2023-01-28T09:30:30.907Z,7.30
2023-01-28T09:32:33.994Z,7.75
2023-01-28T09:34:39.152Z,7.53
2023-01-28T09:36:42.295Z,7.43
2023-01-28T09:38:45.316Z,7.50
2023-01-28T09:40:48.764Z,8.13
2023-01-28T09:43:04.695Z,7.45
2023-01-28T09:45:16.198Z,7.40
2023-01-28T09:49:36.176Z,6.78
2023-01-28T09:51:43.142Z,7.90
2023-01-28T09:53:50.125Z,6.97
2023-01-28T09:55:58.187Z,6.93
2023-01-28T09:58:01.314Z,7.20
2023-01-28T10:00:04.767Z,6.93
2023-01-28T10:02:43.540Z,7.38
2023-01-28T10:04:59.731Z,7.88
2023-01-28T10:07:18.296Z,7.85
2023-01-28T10:09:31.066Z,8.00
2023-01-28T10:11:52.751Z,7.35
2023-01-28T10:16:25.801Z,9.27
2023-01-28T10:18:36.845Z,9.25
2023-01-28T10:20:44.786Z,8.90
2023-01-28T10:22:53.403Z,9.55
2023-01-28T10:25:02.045Z,8.90
2023-01-28T10:27:13.708Z,8.40
2023-01-28T10:31:23.131Z,9.40
2023-01-28T10:33:32.503Z,9.90
2023-01-28T10:35:41.465Z,9.57
2023-01-28T10:37:44.997Z,9.77
2023-01-28T10:39:49.657Z,9.35
2023-01-28T10:41:58.175Z,9.23
2023-01-28T10:44:01.736Z,9.57
2023-01-28T10:46:11.934Z,13.32
2023-01-28T10:48:22.410Z,9.82
2023-01-28T10:50:28.173Z,8.73
2023-01-28T10:52:31.226Z,8.05
2023-01-28T10:54:34.405Z,7.35
2023-01-28T10:56:38.943Z,8.38
2023-01-28T10:58:52.803Z,7.97
2023-01-28T11:00:58.976Z,7.40
2023-01-28T11:03:02.253Z,8.07
2023-01-28T11:05:08.554Z,8.45
2023-01-28T11:07:19.445Z,7.93
2023-01-28T11:09:24.881Z,8.10
2023-01-28T11:11:29.795Z,8.32
2023-01-28T11:13:34.348Z,8.55
2023-01-28T11:15:47.209Z,8.00
2023-01-28T11:17:57.544Z,8.57
2023-01-28T11:20:10.387Z,8.88
2023-01-28T11:22:24.149Z,8.77
2023-01-28T11:24:31.123Z,8.50
2023-01-28T11:26:37.877Z,9.07
2023-01-28T11:28:44.864Z,8.50
2023-01-28T11:30:53.786Z,9.38
2023-01-28T11:33:05.403Z,8.65
2023-01-28T11:37:16.269Z,9.65
2023-01-28T11:39:22.364Z,10.52
2023-01-28T11:41:29.209Z,10.82
2023-01-28T11:43:33.243Z,10.00
2023-01-28T11:45:45.234Z,8.55
2023-01-28T11:48:08.461Z,9.38
2023-01-28T11:50:24.419Z,9.63
2023-01-28T11:53:02.462Z,10.98
2023-01-28T11:55:19.277Z,9.73
2023-01-28T11:57:25.580Z,10.63
2023-01-28T11:59:51.297Z,9.70
2023-01-28T12:02:00.365Z,9.48
2023-01-28T12:04:18.801Z,9.73
2023-01-28T12:06:37.773Z,9.88
2023-01-28T12:08:51.073Z,9.35
2023-01-28T12:11:20.916Z,9.75
2023-01-28T12:13:37.527Z,11.00
2023-01-28T12:16:01.447Z,11.27
2023-01-28T12:18:19.968Z,10.10
2023-01-28T12:20:32.041Z,9.90
2023-01-28T12:22:58.132Z,9.57
2023-01-28T12:25:19.202Z,9.85
2023-01-28T12:27:36.040Z,7.75
2023-01-28T12:29:49.862Z,9.95
2023-01-28T12:32:09.872Z,9.55
2023-01-28T12:34:44.212Z,9.90
2023-01-28T12:36:57.374Z,10.32
2023-01-28T12:39:10.798Z,10.45
2023-01-28T12:41:17.612Z,10.35
2023-01-28T12:43:28.184Z,9.90
2023-01-28T12:45:38.862Z,10.32
2023-01-28T12:47:48.256Z,10.27
2023-01-28T12:49:57.234Z,10.90
2023-01-28T12:52:05.996Z,10.85
2023-01-28T12:54:18.078Z,10.65
2023-01-28T12:56:26.995Z,11.05
2023-01-28T12:58:40.923Z,10.63
2023-01-28T13:00:49.792Z,11.70
2023-01-28T13:03:02.080Z,11.02
2023-01-28T13:05:13.310Z,11.40
2023-01-28T13:07:21.976Z,11.27
2023-01-28T13:09:28.045Z,11.57
2023-01-28T13:11:36.673Z,11.52
2023-01-28T13:13:42.300Z,12.13
2023-01-28T13:15:47.237Z,12.90
2023-01-28T13:17:58.683Z,12.02
2023-01-28T13:22:14.785Z,12.93
2023-01-28T13:24:33.700Z,12.80
2023-01-28T13:26:45.411Z,13.15
2023-01-28T13:28:49.908Z,13.13
2023-01-28T13:30:53.583Z,12.02
2023-01-28T13:32:59.826Z,12.07
2023-01-28T13:35:06.575Z,12.43
2023-01-28T13:37:26.777Z,13.30
2023-01-28T13:39:31.980Z,12.85
2023-01-28T13:41:40.036Z,13.40
2023-01-28T13:43:43.901Z,13.15
2023-01-28T13:45:57.551Z,13.30
2023-01-28T13:48:14.626Z,13.80
2023-01-28T13:50:23.042Z,13.05
2023-01-28T13:52:31.867Z,14.45
2023-01-28T13:54:37.741Z,14.25
2023-01-28T13:56:43.488Z,13.23
2023-01-28T13:59:34.440Z,13.45
2023-01-28T14:01:58.754Z,12.73
2023-01-28T14:04:31.434Z,14.10
2023-01-28T14:07:02.164Z,13.80
2023-01-28T14:09:32.889Z,13.95
2023-01-28T14:12:05.109Z,14.02
2023-01-28T14:14:28.246Z,13.68
2023-01-28T14:16:39.752Z,13.60
2023-01-28T14:20:47.914Z,13.65
2023-01-28T14:22:51.693Z,13.60
2023-01-28T14:24:58.740Z,14.18
2023-01-28T14:27:09.053Z,13.40
2023-01-28T14:29:27.165Z,13.85
2023-01-28T14:31:34.096Z,13.45
2023-01-28T14:33:38.169Z,13.38
2023-01-28T14:35:46.262Z,13.27
2023-01-28T14:37:49.431Z,13.10
2023-01-28T14:39:54.396Z,12.70
2023-01-28T14:42:01.141Z,12.57
2023-01-28T14:44:04.343Z,13.57
2023-01-28T14:46:20.420Z,13.77
2023-01-28T14:48:27.277Z,12.93
2023-01-28T14:50:51.055Z,13.15
2023-01-28T14:53:15.180Z,12.98
2023-01-28T14:55:31.265Z,12.90
2023-01-28T14:57:49.823Z,12.88
2023-01-28T14:59:55.132Z,12.77
2023-01-28T15:02:00.690Z,14.85
2023-01-28T15:04:03.845Z,12.77
2023-01-28T15:06:12.956Z,21.38
2023-01-28T15:08:22.702Z,21.58
2023-01-28T15:10:29.293Z,15.25
2023-01-28T15:12:36.766Z,13.68
2023-01-28T15:14:42.225Z,12.60
2023-01-28T15:16:49.463Z,12.90
2023-01-28T15:18:53.147Z,14.95
2023-01-28T15:20:57.136Z,14.07
2023-01-28T15:23:03.152Z,13.80
2023-01-28T15:25:06.701Z,13.00
2023-01-28T15:27:18.937Z,13.00
2023-01-28T15:29:26.601Z,13.15
2023-01-28T15:31:32.835Z,13.52
2023-01-28T15:33:35.879Z,13.48
2023-01-28T15:35:39.156Z,13.38
2023-01-28T15:37:42.285Z,13.93
2023-01-28T15:39:45.373Z,13.93
2023-01-28T15:41:52.974Z,14.20
2023-01-28T15:43:56.103Z,13.52
2023-01-28T15:46:00.512Z,13.50
2023-01-28T15:48:08.924Z,13.88
2023-01-28T15:50:20.557Z,15.10
2023-01-28T15:52:31.612Z,14.10
2023-01-28T15:54:39.848Z,13.77
2023-01-28T15:56:42.913Z,13.73
2023-01-28T15:58:46.339Z,13.23
2023-01-28T16:00:50.554Z,13.95
2023-01-28T16:02:56.153Z,13.85
2023-01-28T16:05:02.778Z,14.95
2023-01-28T16:07:06.348Z,13.82
2023-01-28T16:09:19.990Z,14.15
2023-01-28T16:11:27.231Z,14.43
2023-01-28T16:13:33.910Z,14.63
2023-01-28T16:15:38.483Z,15.48
2023-01-28T16:17:48.125Z,14.55
2023-01-28T16:19:57.146Z,14.50
2023-01-28T16:22:02.283Z,14.80
2023-01-28T16:24:08.075Z,14.45
2023-01-28T16:26:23.205Z,14.63
2023-01-28T16:28:26.419Z,14.75
2023-01-28T16:30:30.420Z,14.50
2023-01-28T16:32:37.506Z,15.52
2023-01-28T16:34:42.276Z,16.10
2023-01-28T16:36:45.367Z,15.20
2023-01-28T16:38:49.815Z,15.65
2023-01-28T16:40:52.790Z,16.00
2023-01-28T16:42:56.562Z,15.23
2023-01-28T16:44:59.925Z,16.40
2023-01-28T16:47:04.597Z,15.80
2023-01-28T16:49:07.904Z,16.80
2023-01-28T16:51:17.064Z,15.75
2023-01-28T16:53:22.580Z,16.77
2023-01-28T16:55:27.433Z,16.10
2023-01-28T16:57:35.069Z,16.17
2023-01-28T16:59:38.114Z,14.68
2023-01-28T17:01:41.254Z,15.38
2023-01-28T17:03:44.442Z,16.85
2023-01-28T17:05:47.744Z,16.02
2023-01-28T17:07:54.182Z,15.98
2023-01-28T17:09:57.288Z,17.02
2023-01-28T17:12:03.630Z,16.10
2023-01-28T17:14:07.085Z,15.90
2023-01-28T17:16:10.184Z,16.90
2023-01-28T17:18:13.237Z,15.95
2023-01-28T17:20:16.437Z,15.43
2023-01-28T17:22:19.491Z,15.65
2023-01-28T17:24:22.591Z,16.13
2023-01-28T17:26:26.706Z,16.27
2023-01-28T17:28:31.407Z,15.93
2023-01-28T17:30:34.577Z,15.25
2023-01-28T17:32:37.679Z,16.58
2023-01-28T17:34:40.839Z,16.92
2023-01-28T17:36:43.991Z,16.05
2023-01-28T17:38:49.307Z,16.13
2023-01-28T17:40:52.484Z,16.75
2023-01-28T17:42:55.829Z,15.98
2023-01-28T17:45:03.125Z,16.20
2023-01-28T17:47:06.599Z,16.95
2023-01-28T17:49:10.056Z,15.75
2023-01-28T17:51:13.887Z,16.60
2023-01-28T17:53:16.927Z,15.85
2023-01-28T17:55:20.690Z,17.08
2023-01-28T17:57:24.088Z,15.77
2023-01-28T17:59:27.138Z,16.48
2023-01-28T18:01:31.998Z,16.23
2023-01-28T18:03:35.006Z,16.88
2023-01-28T18:05:38.072Z,15.73
2023-01-28T18:07:41.191Z,16.00
2023-01-28T18:09:45.835Z,15.45
2023-01-28T18:11:48.999Z,16.13
2023-01-28T18:13:52.540Z,16.15
2023-01-28T18:15:55.600Z,16.15
2023-01-28T18:18:00.150Z,16.10
2023-01-28T18:20:03.854Z,16.27
2023-01-28T18:22:07.382Z,16.13
2023-01-28T18:24:11.285Z,15.25
2023-01-28T18:26:14.462Z,15.73
2023-01-28T18:28:17.563Z,16.33
2023-01-28T18:30:20.730Z,16.13
2023-01-28T18:32:23.904Z,15.55
2023-01-28T18:34:31.558Z,15.52
2023-01-28T18:36:34.654Z,15.20
2023-01-28T18:38:38.036Z,15.80
2023-01-28T18:40:45.149Z,15.45
2023-01-28T18:42:48.298Z,15.63
2023-01-28T18:44:51.778Z,15.82
2023-01-28T18:46:55.391Z,15.00
2023-01-28T18:48:58.863Z,16.08
2023-01-28T18:51:03.489Z,15.30
2023-01-28T18:53:06.567Z,15.98
2023-01-28T18:55:11.148Z,15.82
2023-01-28T18:57:14.666Z,15.88
2023-01-28T18:59:18.426Z,16.75
2023-01-28T19:01:21.869Z,16.55
2023-01-28T19:03:25.855Z,16.45
2023-01-28T19:05:29.515Z,15.88
2023-01-28T19:07:34.383Z,15.52
2023-01-28T19:09:37.941Z,15.70
2023-01-28T19:11:41.585Z,15.82
2023-01-28T19:13:44.766Z,16.63
2023-01-28T19:15:47.852Z,16.38
2023-01-28T19:17:50.957Z,16.23
2023-01-28T19:19:54.058Z,15.70
2023-01-28T19:21:57.167Z,17.02
2023-01-28T19:24:03.122Z,17.40
2023-01-28T19:26:06.965Z,16.50
2023-01-28T19:28:10.184Z,17.00
2023-01-28T19:30:13.828Z,16.75
2023-01-28T19:32:16.934Z,16.08
2023-01-28T19:34:19.993Z,17.77
2023-01-28T19:36:23.673Z,17.33
2023-01-28T19:38:27.041Z,17.38
2023-01-28T19:40:32.090Z,17.65
2023-01-28T19:42:35.129Z,18.60
2023-01-28T19:44:38.193Z,18.33
2023-01-28T19:46:41.612Z,18.63
2023-01-28T19:48:45.264Z,17.63
2023-01-28T19:50:48.436Z,18.08
2023-01-28T19:52:51.648Z,18.05
2023-01-28T19:54:54.714Z,17.98
2023-01-28T19:56:59.168Z,18.73
2023-01-28T19:59:02.303Z,18.30
2023-01-28T20:01:06.973Z,18.20
2023-01-28T20:03:10.158Z,18.00
2023-01-28T20:05:13.379Z,19.65
2023-01-28T20:07:16.656Z,18.00
2023-01-28T20:09:20.956Z,20.00
2023-01-28T20:11:24.892Z,19.83
2023-01-28T20:13:31.337Z,19.70
2023-01-28T20:15:34.392Z,19.30
2023-01-28T20:17:37.903Z,18.45
2023-01-28T20:19:41.160Z,21.02
2023-01-28T20:21:45.113Z,20.10
2023-01-28T20:23:48.735Z,20.67
2023-01-28T20:25:52.499Z,19.80
2023-01-28T20:27:55.572Z,19.35
2023-01-28T20:30:00.077Z,19.05
2023-01-28T20:32:15.845Z,19.02
2023-01-28T20:34:21.230Z,19.35
2023-01-28T20:36:24.437Z,19.98
2023-01-28T20:38:27.594Z,19.65
2023-01-28T20:40:30.783Z,19.95
2023-01-28T20:42:33.899Z,20.00
2023-01-28T20:44:37.328Z,20.92
2023-01-28T20:46:41.909Z,27.20
2023-01-28T20:48:45.163Z,22.30
2023-01-28T20:50:48.209Z,20.65
2023-01-28T20:52:51.287Z,21.17
2023-01-28T20:54:54.277Z,24.20
2023-01-28T20:56:57.556Z,22.25
2023-01-28T20:59:02.544Z,22.20
2023-01-28T21:01:06.003Z,20.55
2023-01-28T21:03:10.560Z,20.88
2023-01-28T21:05:13.690Z,21.20
2023-01-28T21:07:16.776Z,22.23
2023-01-28T21:09:19.789Z,22.10
2023-01-28T21:11:24.241Z,20.83
2023-01-28T21:13:27.323Z,20.98
2023-01-28T21:15:30.444Z,21.10
2023-01-28T21:17:33.489Z,20.40
2023-01-28T21:19:37.971Z,20.17
2023-01-28T21:21:42.665Z,20.48
2023-01-28T21:23:45.863Z,19.95
2023-01-28T21:25:50.249Z,20.30
2023-01-28T21:27:53.970Z,20.38
2023-01-28T21:29:57.114Z,20.02
2023-01-28T21:32:00.215Z,20.20
2023-01-28T21:34:03.379Z,19.90
2023-01-28T21:36:13.073Z,21.42
2023-01-28T21:38:16.148Z,20.10
2023-01-28T21:40:19.618Z,20.73
2023-01-28T21:42:22.713Z,21.13
2023-01-28T21:44:25.903Z,21.60
2023-01-28T21:46:31.306Z,20.75
2023-01-28T21:48:34.503Z,29.02
2023-01-28T21:50:57.556Z,23.33
2023-01-28T21:53:02.058Z,21.40
2023-01-28T21:55:05.832Z,21.45
2023-01-28T21:57:09.033Z,21.85
2023-01-28T21:59:29.694Z,22.05
2023-01-28T22:01:32.854Z,21.00
2023-01-28T22:03:35.890Z,22.15
2023-01-28T22:05:39.063Z,22.10
2023-01-28T22:07:42.100Z,21.38
2023-01-28T22:09:47.805Z,21.77
2023-01-28T22:11:50.900Z,22.10
2023-01-28T22:13:53.968Z,22.58
2023-01-28T22:15:57.035Z,22.05
2023-01-28T22:18:00.039Z,21.58
2023-01-28T22:20:03.341Z,21.80
2023-01-28T22:22:07.285Z,21.13
2023-01-28T22:24:12.268Z,21.83
2023-01-28T22:26:16.755Z,21.92
2023-01-28T22:28:19.943Z,20.98
2023-01-28T22:30:23.066Z,21.60
2023-01-28T22:32:26.662Z,19.98
2023-01-28T22:34:29.729Z,22.63
2023-01-28T22:36:33.921Z,22.70
2023-01-28T22:38:39.253Z,21.17
2023-01-28T22:40:42.406Z,21.30
2023-01-28T22:42:46.940Z,20.48
2023-01-28T22:44:50.725Z,21.15
2023-01-28T22:46:53.917Z,20.83
2023-01-28T22:48:57.182Z,21.73
2023-01-28T22:51:03.507Z,20.13
2023-01-28T22:53:06.599Z,21.02
2023-01-28T22:55:10.820Z,21.05
2023-01-28T22:57:13.851Z,20.60
2023-01-28T22:59:18.236Z,20.77
2023-01-28T23:01:21.313Z,20.38
2023-01-28T23:03:24.748Z,21.98
2023-01-28T23:05:28.106Z,21.45
2023-01-28T23:07:31.252Z,20.95
2023-01-28T23:09:34.402Z,20.20
2023-01-28T23:11:37.572Z,20.58
2023-01-28T23:13:54.481Z,20.73
2023-01-28T23:16:16.265Z,20.50
2023-01-28T23:18:39.525Z,20.38
2023-01-28T23:21:00.034Z,20.83
2023-01-28T23:23:20.812Z,20.85
2023-01-28T23:25:24.970Z,20.15
2023-01-28T23:27:28.057Z,20.65
2023-01-28T23:29:32.265Z,19.23
2023-01-28T23:31:36.717Z,20.52
2023-01-28T23:33:39.794Z,21.17
2023-01-28T23:35:42.900Z,19.88
2023-01-28T23:37:46.635Z,20.42
2023-01-28T23:39:49.794Z,20.30
2023-01-28T23:41:52.961Z,20.35
2023-01-28T23:43:56.112Z,20.27
2023-01-28T23:45:59.163Z,19.92
2023-01-28T23:48:04.381Z,20.40
2023-01-28T23:50:07.969Z,19.10
2023-01-28T23:52:11.546Z,18.88
2023-01-28T23:54:14.581Z,20.35
2023-01-28T23:56:18.313Z,20.45
2023-01-28T23:58:40.976Z,19.50
